Time;durP1;ratioP1;P1;durP2;ratioP2;P2;SDS_P1;SDS_P2;PMS_P1;PMS_P2;Temp;Humidity;BMP_temperature;BMP_pressure;BME280_temperature;BME280_humidity;BME280_pressure;Samples;Min_cycle;Max_cycle;Signal;HPM_P1;HPM_P2
2022/08/10 00:01:38;;;;;;;0.95;0.77;;;;;;;;;;2096668;28;20028;-64
2022/08/10 00:02:57;;;;;;;1.10;1.00;;;;;;;;;;2096907;28;20024;-64
2022/08/10 00:04:17;;;;;;;0.80;0.80;;;;;;;;;;2096446;28;20099;-64
2022/08/10 00:05:36;;;;;;;1.77;0.95;;;;;;;;;;2098598;28;20040;-64
2022/08/10 00:06:54;;;;;;;1.00;0.90;;;;;;;;;;2096091;28;20036;-63
2022/08/10 00:08:13;;;;;;;1.05;0.95;;;;;;;;;;2096777;28;20020;-64
2022/08/10 00:09:32;;;;;;;1.40;1.27;;;;;;;;;;2098730;28;20021;-64
2022/08/10 00:10:52;;;;;;;1.67;1.30;;;;;;;;;;2096981;28;20028;-64
2022/08/10 00:12:11;;;;;;;1.63;1.42;;;;;;;;;;2099036;28;20060;-64
2022/08/10 00:13:30;;;;;;;1.30;1.05;;;;;;;;;;2099862;28;20016;-64
2022/08/10 00:14:49;;;;;;;1.90;0.90;;;;;;;;;;2097264;28;20024;-64
2022/08/10 00:16:08;;;;;;;1.45;1.20;;;;;;;;;;2096595;28;20115;-64
2022/08/10 00:17:27;;;;;;;1.50;1.30;;;;;;;;;;2100107;28;20029;-64
2022/08/10 00:18:46;;;;;;;1.50;1.10;;;;;;;;;;2098975;28;20029;-64
2022/08/10 00:20:05;;;;;;;1.75;0.95;;;;;;;;;;2097397;28;20029;-64
2022/08/10 00:21:23;;;;;;;1.30;1.17;;;;;;;;;;2097936;28;20025;-64
2022/08/10 00:22:42;;;;;;;2.72;1.02;;;;;;;;;;2098379;28;20115;-65
2022/08/10 00:24:01;;;;;;;0.95;0.90;;;;;;;;;;2098689;28;20028;-64
2022/08/10 00:25:20;;;;;;;1.98;1.20;;;;;;;;;;2099190;28;20052;-64
2022/08/10 00:26:39;;;;;;;1.20;1.10;;;;;;;;;;2096839;28;20024;-64
2022/08/10 00:27:58;;;;;;;1.20;0.90;;;;;;;;;;2098772;28;20112;-65
2022/08/10 00:29:17;;;;;;;1.67;1.20;;;;;;;;;;2098266;28;20966;-64
2022/08/10 00:30:36;;;;;;;1.35;1.15;;;;;;;;;;2095270;28;20492;-63
2022/08/10 00:31:55;;;;;;;1.48;1.20;;;;;;;;;;2097304;28;20032;-64
2022/08/10 00:33:14;;;;;;;3.22;1.25;;;;;;;;;;2099170;28;20032;-63
2022/08/10 00:34:33;;;;;;;1.30;1.20;;;;;;;;;;2096585;28;20024;-63
2022/08/10 00:35:52;;;;;;;1.65;0.98;;;;;;;;;;2097791;28;20033;-63
2022/08/10 00:37:12;;;;;;;0.98;0.95;;;;;;;;;;2098869;28;20036;-64
2022/08/10 00:38:33;;;;;;;1.40;1.30;;;;;;;;;;2097955;28;20127;-64
2022/08/10 00:39:52;;;;;;;1.10;1.00;;;;;;;;;;2097493;28;20020;-64
2022/08/10 00:41:11;;;;;;;2.00;1.10;;;;;;;;;;2098462;28;20032;-64
2022/08/10 00:42:30;;;;;;;1.60;1.10;;;;;;;;;;2098614;28;20037;-64
2022/08/10 00:43:49;;;;;;;2.50;1.20;;;;;;;;;;2099318;28;20024;-64
2022/08/10 00:45:08;;;;;;;2.63;1.17;;;;;;;;;;2098739;28;20099;-64
2022/08/10 00:46:27;;;;;;;1.75;1.42;;;;;;;;;;2097354;28;20107;-64
2022/08/10 00:47:46;;;;;;;1.20;1.10;;;;;;;;;;2099057;28;20028;-64
2022/08/10 00:49:05;;;;;;;1.05;0.95;;;;;;;;;;2095101;28;20123;-64
2022/08/10 00:50:24;;;;;;;1.08;1.00;;;;;;;;;;2098429;28;20083;-64
2022/08/10 00:51:43;;;;;;;0.90;0.90;;;;;;;;;;2098985;28;20460;-63
2022/08/10 00:53:02;;;;;;;1.15;1.13;;;;;;;;;;2099334;28;20508;-64
2022/08/10 00:54:21;;;;;;;1.52;1.13;;;;;;;;;;2096476;28;20037;-64
2022/08/10 00:55:40;;;;;;;1.35;1.00;;;;;;;;;;2097960;28;20024;-64
2022/08/10 00:56:59;;;;;;;1.23;1.00;;;;;;;;;;2099163;28;20111;-64
2022/08/10 00:58:17;;;;;;;1.77;1.17;;;;;;;;;;2097946;28;20032;-64
2022/08/10 00:59:37;;;;;;;1.40;1.08;;;;;;;;;;2099799;28;20380;-64
2022/08/10 01:00:55;;;;;;;1.73;1.20;;;;;;;;;;2097639;28;20032;-64
2022/08/10 01:02:14;;;;;;;1.63;1.30;;;;;;;;;;2097419;28;20028;-64
2022/08/10 01:03:33;;;;;;;1.40;1.30;;;;;;;;;;2098260;28;20181;-64
2022/08/10 01:04:52;;;;;;;1.20;1.10;;;;;;;;;;2100887;28;20028;-63
2022/08/10 01:06:17;;;;;;;0.93;0.93;;;;;;;;;;2098550;28;20021;-64
2022/08/10 01:07:55;;;;;;;1.35;1.25;;;;;;;;;;2100054;28;20036;-64
2022/08/10 01:09:22;;;;;;;1.58;1.30;;;;;;;;;;2099791;28;20024;-64
2022/08/10 01:10:41;;;;;;;1.38;1.20;;;;;;;;;;2096340;28;20111;-64
2022/08/10 01:12:19;;;;;;;1.10;1.05;;;;;;;;;;2096966;28;20044;-63
2022/08/10 01:13:43;;;;;;;2.40;1.40;;;;;;;;;;2101078;28;20508;-64
2022/08/10 01:15:06;;;;;;;3.05;1.40;;;;;;;;;;2099209;28;20032;-63
2022/08/10 01:16:25;;;;;;;;;;;;;;;;;;2095964;28;20028;-63
2022/08/10 01:18:01;;;;;;;1.33;1.20;;;;;;;;;;2096901;28;19912;-63
2022/08/10 01:19:39;;;;;;;1.27;0.90;;;;;;;;;;2099451;28;20493;-64
2022/08/10 01:21:17;;;;;;;1.20;1.20;;;;;;;;;;2100813;28;20028;-64
2022/08/10 01:22:48;;;;;;;1.23;1.13;;;;;;;;;;2096491;28;20073;-64
2022/08/10 01:24:07;;;;;;;0.98;0.98;;;;;;;;;;2100175;28;20020;-64
2022/08/10 01:25:44;;;;;;;1.30;1.20;;;;;;;;;;2101984;28;20032;-64
2022/08/10 01:27:33;;;;;;;1.77;1.65;;;;;;;;;;2100690;28;20480;-64
2022/08/10 01:29:07;;;;;;;2.40;1.50;;;;;;;;;;2097506;28;20487;-64
2022/08/10 01:30:29;;;;;;;1.58;1.48;;;;;;;;;;2099439;28;20032;-64
2022/08/10 01:31:50;;;;;;;2.60;2.00;;;;;;;;;;2100317;28;20388;-63
2022/08/10 01:33:10;;;;;;;2.08;1.90;;;;;;;;;;2099435;28;20422;-64
2022/08/10 01:34:40;;;;;;;2.47;1.90;;;;;;;;;;2098623;28;20384;-64
2022/08/10 01:35:59;;;;;;;2.25;1.92;;;;;;;;;;2100701;28;20032;-64
2022/08/10 01:37:21;;;;;;;2.47;2.28;;;;;;;;;;2102093;28;20036;-64
2022/08/10 01:38:46;;;;;;;2.80;2.60;;;;;;;;;;2098494;28;20052;-64
2022/08/10 01:40:08;;;;;;;3.30;3.00;;;;;;;;;;2095431;28;20564;-63
2022/08/10 01:41:29;;;;;;;4.03;2.72;;;;;;;;;;2094336;28;20036;-63
2022/08/10 01:42:50;;;;;;;4.05;3.40;;;;;;;;;;2097770;28;20040;-64
2022/08/10 01:44:32;;;;;;;3.55;3.25;;;;;;;;;;2098676;28;20016;-64
2022/08/10 01:45:54;;;;;;;4.30;3.90;;;;;;;;;;2096331;28;20412;-63
2022/08/10 01:48:54;;;;;;;4.40;4.05;;;;;;;;;;2099130;28;20115;-64
2022/08/10 01:50:34;;;;;;;4.85;4.35;;;;;;;;;;2099779;28;20040;-64
2022/08/10 01:51:55;;;;;;;7.32;4.85;;;;;;;;;;2097724;28;20033;-65
2022/08/10 01:53:25;;;;;;;5.32;4.82;;;;;;;;;;2101686;28;20036;-64
2022/08/10 01:54:44;;;;;;;6.50;5.00;;;;;;;;;;2101838;28;20060;-64
2022/08/10 01:56:04;;;;;;;5.43;4.93;;;;;;;;;;2100230;28;20063;-64
2022/08/10 01:57:24;;;;;;;5.28;4.57;;;;;;;;;;2098878;28;20443;-64
2022/08/10 01:58:47;;;;;;;4.95;4.22;;;;;;;;;;2093152;28;20035;-63
2022/08/10 02:00:07;;;;;;;5.03;4.50;;;;;;;;;;2098183;28;20021;-64
2022/08/10 02:01:28;;;;;;;5.35;4.85;;;;;;;;;;2098185;28;20058;-64
2022/08/10 02:02:48;;;;;;;4.97;4.55;;;;;;;;;;2100404;28;20032;-65
2022/08/10 02:04:09;;;;;;;5.40;4.90;;;;;;;;;;2098216;28;20032;-64
2022/08/10 02:05:28;;;;;;;6.82;6.13;;;;;;;;;;2099270;28;20484;-64
2022/08/10 02:06:52;;;;;;;6.30;5.70;;;;;;;;;;2100720;28;20037;-65
2022/08/10 02:08:13;;;;;;;7.32;6.30;;;;;;;;;;2096245;28;20707;-64
2022/08/10 02:09:33;;;;;;;6.68;5.88;;;;;;;;;;2101599;28;20510;-65
2022/08/10 02:10:54;;;;;;;6.35;5.65;;;;;;;;;;2100401;28;20028;-63
2022/08/10 02:12:14;;;;;;;7.15;6.47;;;;;;;;;;2096115;28;20024;-64
2022/08/10 02:13:33;;;;;;;7.72;6.53;;;;;;;;;;2098238;28;20033;-63
2022/08/10 02:14:54;;;;;;;7.00;6.40;;;;;;;;;;2100874;28;20028;-63
2022/08/10 02:16:13;;;;;;;8.38;7.30;;;;;;;;;;2101406;28;20071;-63
2022/08/10 02:17:35;;;;;;;8.05;7.25;;;;;;;;;;2102399;28;20036;-64
2022/08/10 02:18:54;;;;;;;10.52;7.53;;;;;;;;;;2100082;28;20036;-64
2022/08/10 02:20:16;;;;;;;8.40;7.50;;;;;;;;;;2098683;28;20069;-65
2022/08/10 02:21:35;;;;;;;8.32;7.35;;;;;;;;;;2097528;28;20016;-64
2022/08/10 02:22:56;;;;;;;10.98;8.13;;;;;;;;;;2098559;28;20024;-64
2022/08/10 02:24:16;;;;;;;10.82;8.48;;;;;;;;;;2098443;28;20103;-64
2022/08/10 02:25:36;;;;;;;9.82;8.52;;;;;;;;;;2099551;28;20032;-64
2022/08/10 02:26:55;;;;;;;10.70;7.90;;;;;;;;;;2100449;28;20020;-64
2022/08/10 02:28:16;;;;;;;10.73;7.45;;;;;;;;;;2097314;28;20032;-64
2022/08/10 02:29:35;;;;;;;11.45;8.95;;;;;;;;;;2099389;28;20029;-64
2022/08/10 02:30:55;;;;;;;8.90;7.90;;;;;;;;;;2098369;28;20495;-64
2022/08/10 02:32:16;;;;;;;9.30;8.30;;;;;;;;;;2097708;28;20032;-64
2022/08/10 02:33:35;;;;;;;10.05;8.57;;;;;;;;;;2101811;28;20028;-64
2022/08/10 02:34:56;;;;;;;9.82;8.30;;;;;;;;;;2100380;28;20028;-64
2022/08/10 02:36:15;;;;;;;8.98;8.07;;;;;;;;;;2098379;28;20027;-64
2022/08/10 02:37:36;;;;;;;11.52;8.38;;;;;;;;;;2096450;28;20058;-64
2022/08/10 02:38:57;;;;;;;11.25;8.65;;;;;;;;;;2099271;28;20044;-64
2022/08/10 02:40:16;;;;;;;8.93;8.02;;;;;;;;;;2099602;28;20016;-64
2022/08/10 02:41:41;;;;;;;10.30;8.57;;;;;;;;;;2100547;28;20388;-64
2022/08/10 02:43:07;;;;;;;11.00;8.43;;;;;;;;;;2101306;28;20032;-64
2022/08/10 02:44:28;;;;;;;9.55;8.57;;;;;;;;;;2098631;28;20020;-63
2022/08/10 02:45:58;;;;;;;9.20;8.00;;;;;;;;;;2096936;28;20025;-63
2022/08/10 02:47:25;;;;;;;11.13;8.70;;;;;;;;;;2100135;28;20032;-63
2022/08/10 02:48:45;;;;;;;9.73;8.27;;;;;;;;;;2099688;28;20028;-64
2022/08/10 02:50:11;;;;;;;13.60;8.80;;;;;;;;;;2099602;28;20079;-64
2022/08/10 02:51:44;;;;;;;12.10;8.95;;;;;;;;;;2100925;28;20054;-64
2022/08/10 02:53:07;;;;;;;9.40;8.13;;;;;;;;;;2099453;28;20036;-63
2022/08/10 02:54:31;;;;;;;10.73;8.30;;;;;;;;;;2096366;28;20111;-63
2022/08/10 02:55:55;;;;;;;10.93;8.07;;;;;;;;;;2098474;28;20056;-64
2022/08/10 02:57:14;;;;;;;11.45;8.00;;;;;;;;;;2096673;28;20032;-64
2022/08/10 02:58:49;;;;;;;8.85;7.85;;;;;;;;;;2098385;28;20497;-64
2022/08/10 03:00:08;;;;;;;10.52;7.72;;;;;;;;;;2097706;28;20040;-64
2022/08/10 03:01:32;;;;;;;8.48;7.65;;;;;;;;;;2100579;28;20447;-64
2022/08/10 03:02:52;;;;;;;8.30;7.15;;;;;;;;;;2100520;28;20040;-65
2022/08/10 03:04:14;;;;;;;10.65;7.38;;;;;;;;;;2098565;28;20032;-65
2022/08/10 03:05:33;;;;;;;10.20;7.65;;;;;;;;;;2099960;28;20021;-65
2022/08/10 03:06:59;;;;;;;7.90;7.07;;;;;;;;;;2100244;28;20028;-65
2022/08/10 03:08:20;;;;;;;7.20;6.40;;;;;;;;;;2098081;28;20028;-64
2022/08/10 03:09:39;;;;;;;7.22;6.53;;;;;;;;;;2099939;28;20037;-64
2022/08/10 03:11:00;;;;;;;7.80;6.43;;;;;;;;;;2100170;28;20028;-64
2022/08/10 03:12:20;;;;;;;7.85;6.03;;;;;;;;;;2098927;28;20435;-64
2022/08/10 03:13:39;;;;;;;6.25;5.63;;;;;;;;;;2100617;28;20032;-63
2022/08/10 03:14:59;;;;;;;6.78;6.18;;;;;;;;;;2100295;28;20107;-64
2022/08/10 03:16:18;;;;;;;7.28;6.18;;;;;;;;;;2098948;28;20059;-65
2022/08/10 03:17:38;;;;;;;7.47;6.75;;;;;;;;;;2100993;28;20028;-64
2022/08/10 03:18:59;;;;;;;6.88;6.28;;;;;;;;;;2099818;28;20029;-65
2022/08/10 03:20:18;;;;;;;6.68;6.07;;;;;;;;;;2099648;28;20438;-64
2022/08/10 03:21:37;;;;;;;6.70;6.00;;;;;;;;;;2101890;28;20108;-64
2022/08/10 03:22:56;;;;;;;6.45;5.85;;;;;;;;;;2097281;28;20016;-65
2022/08/10 03:24:21;;;;;;;7.15;6.43;;;;;;;;;;2096226;28;20119;-64
2022/08/10 03:25:42;;;;;;;7.05;6.35;;;;;;;;;;2094823;28;20115;-63
2022/08/10 03:27:02;;;;;;;7.78;6.53;;;;;;;;;;2098757;28;21501;-64
2022/08/10 03:28:21;;;;;;;7.47;6.75;;;;;;;;;;2094204;28;20467;-64
2022/08/10 03:29:41;;;;;;;9.65;6.68;;;;;;;;;;2095133;28;20594;-64
2022/08/10 03:31:00;;;;;;;6.68;6.07;;;;;;;;;;2096489;28;20029;-65
2022/08/10 03:32:19;;;;;;;8.73;7.18;;;;;;;;;;2094990;28;20103;-64
2022/08/10 03:33:39;;;;;;;7.38;6.68;;;;;;;;;;2096882;28;20028;-65
2022/08/10 03:34:59;;;;;;;7.25;6.55;;;;;;;;;;2096529;28;20152;-64
2022/08/10 03:36:17;;;;;;;10.80;7.38;;;;;;;;;;2097527;28;20060;-65
2022/08/10 03:37:37;;;;;;;10.95;7.13;;;;;;;;;;2096166;28;20111;-64
2022/08/10 03:38:56;;;;;;;10.35;7.65;;;;;;;;;;2098909;28;20535;-64
2022/08/10 03:40:15;;;;;;;8.52;6.47;;;;;;;;;;2097011;28;20029;-65
2022/08/10 03:41:37;;;;;;;7.20;6.50;;;;;;;;;;2100147;28;20033;-64
2022/08/10 03:42:57;;;;;;;7.85;7.05;;;;;;;;;;2099984;28;20145;-65
2022/08/10 03:44:18;;;;;;;7.22;6.28;;;;;;;;;;2099013;28;20017;-65
2022/08/10 03:45:37;;;;;;;7.25;6.53;;;;;;;;;;2097772;28;20036;-64
2022/08/10 03:46:59;;;;;;;7.68;6.88;;;;;;;;;;2098382;28;20059;-64
2022/08/10 03:48:20;;;;;;;7.50;6.68;;;;;;;;;;2094551;28;20021;-64
2022/08/10 03:49:40;;;;;;;8.68;6.63;;;;;;;;;;2096805;28;20020;-64
2022/08/10 03:51:00;;;;;;;6.88;6.28;;;;;;;;;;2099818;28;20028;-64
2022/08/10 03:52:19;;;;;;;8.07;5.93;;;;;;;;;;2097258;28;20051;-64
2022/08/10 03:53:39;;;;;;;6.82;5.78;;;;;;;;;;2096906;28;20032;-64
2022/08/10 03:54:58;;;;;;;7.10;5.78;;;;;;;;;;2099036;28;20020;-64
2022/08/10 03:56:17;;;;;;;5.60;5.07;;;;;;;;;;2095705;28;20021;-64
2022/08/10 03:57:36;;;;;;;5.97;5.32;;;;;;;;;;2097731;28;20025;-63
2022/08/10 03:58:56;;;;;;;6.40;4.97;;;;;;;;;;2095831;28;20060;-64
2022/08/10 04:00:17;;;;;;;5.18;4.60;;;;;;;;;;2094346;28;20032;-64
2022/08/10 04:01:36;;;;;;;6.38;4.75;;;;;;;;;;2096651;28;20028;-63
2022/08/10 04:02:56;;;;;;;5.55;4.90;;;;;;;;;;2096222;28;20905;-64
2022/08/10 04:04:15;;;;;;;5.78;4.75;;;;;;;;;;2094794;28;20029;-64
2022/08/10 04:05:34;;;;;;;5.45;5.05;;;;;;;;;;2096854;28;20111;-65
2022/08/10 04:06:55;;;;;;;5.07;4.68;;;;;;;;;;2095988;28;20138;-66
2022/08/10 04:08:14;;;;;;;5.10;4.50;;;;;;;;;;2098133;28;20051;-65
2022/08/10 04:09:35;;;;;;;4.80;4.40;;;;;;;;;;2097698;28;20028;-65
2022/08/10 04:10:54;;;;;;;4.70;4.30;;;;;;;;;;2095776;28;20616;-65
2022/08/10 04:12:14;;;;;;;4.60;4.20;;;;;;;;;;2096213;28;20036;-66
2022/08/10 04:13:32;;;;;;;4.80;4.40;;;;;;;;;;2099694;28;20040;-66
2022/08/10 04:14:51;;;;;;;5.80;4.57;;;;;;;;;;2099276;28;20040;-66
2022/08/10 04:16:10;;;;;;;4.47;4.10;;;;;;;;;;2095691;28;20036;-66
2022/08/10 04:17:30;;;;;;;4.13;3.83;;;;;;;;;;2095590;28;20029;-66
2022/08/10 04:18:49;;;;;;;4.22;3.92;;;;;;;;;;2095627;28;20032;-65
2022/08/10 04:20:27;;;;;;;4.20;3.80;;;;;;;;;;2097260;28;20028;-66
2022/08/10 04:22:07;;;;;;;4.38;4.07;;;;;;;;;;2096560;28;20028;-65
2022/08/10 04:23:29;;;;;;;5.18;2.88;;;;;;;;;;2097583;28;20509;-65
2022/08/10 04:24:50;;;;;;;3.78;3.15;;;;;;;;;;2097776;28;20032;-65
2022/08/10 04:26:10;;;;;;;4.45;3.25;;;;;;;;;;2098441;28;20036;-66
2022/08/10 04:27:28;;;;;;;3.75;3.50;;;;;;;;;;2094307;28;20056;-65
2022/08/10 04:28:48;;;;;;;3.75;2.78;;;;;;;;;;2099429;28;20036;-65
2022/08/10 04:30:07;;;;;;;3.22;2.50;;;;;;;;;;2096371;28;20933;-65
2022/08/10 04:31:26;;;;;;;3.90;3.13;;;;;;;;;;2096470;28;20115;-66
2022/08/10 04:32:47;;;;;;;4.32;2.90;;;;;;;;;;2098107;28;20493;-65
2022/08/10 04:34:06;;;;;;;2.90;2.58;;;;;;;;;;2095584;28;20024;-65
2022/08/10 04:35:26;;;;;;;3.53;3.22;;;;;;;;;;2095997;28;20036;-66
2022/08/10 04:36:46;;;;;;;3.55;3.00;;;;;;;;;;2096593;28;20119;-66
2022/08/10 04:38:05;;;;;;;3.90;2.92;;;;;;;;;;2097457;28;20041;-66
2022/08/10 04:39:24;;;;;;;2.58;2.35;;;;;;;;;;2098715;28;20115;-66
2022/08/10 04:40:43;;;;;;;2.90;2.55;;;;;;;;;;2099584;28;20107;-66
2022/08/10 04:42:02;;;;;;;2.35;2.20;;;;;;;;;;2098582;28;20501;-65
2022/08/10 04:43:21;;;;;;;2.55;2.30;;;;;;;;;;2096054;28;20028;-65
2022/08/10 04:44:41;;;;;;;4.68;2.88;;;;;;;;;;2097216;28;20028;-65
2022/08/10 04:46:00;;;;;;;5.20;2.42;;;;;;;;;;2092483;28;20465;-65
2022/08/10 04:47:19;;;;;;;6.20;2.88;;;;;;;;;;2098829;28;20416;-65
2022/08/10 04:48:38;;;;;;;4.25;2.38;;;;;;;;;;2096414;28;20035;-65
2022/08/10 04:49:57;;;;;;;3.05;2.03;;;;;;;;;;2097644;28;20036;-66
2022/08/10 04:51:16;;;;;;;2.55;2.35;;;;;;;;;;2099302;28;20066;-66
2022/08/10 04:52:34;;;;;;;2.13;1.92;;;;;;;;;;2097970;28;20037;-66
2022/08/10 04:53:56;;;;;;;2.65;2.17;;;;;;;;;;2097343;28;20033;-65
2022/08/10 04:55:15;;;;;;;2.67;2.00;;;;;;;;;;2099283;28;20115;-65
2022/08/10 04:56:35;;;;;;;2.17;1.98;;;;;;;;;;2100068;28;20036;-66
2022/08/10 04:57:54;;;;;;;3.30;2.30;;;;;;;;;;2096264;28;20047;-65
2022/08/10 04:59:13;;;;;;;2.33;2.13;;;;;;;;;;2101165;28;20431;-66
2022/08/10 05:00:32;;;;;;;1.98;1.80;;;;;;;;;;2099914;28;20028;-65
2022/08/10 05:01:51;;;;;;;2.47;2.28;;;;;;;;;;2098261;28;20028;-66
2022/08/10 05:03:10;;;;;;;5.75;2.22;;;;;;;;;;2099321;28;20056;-65
2022/08/10 05:04:29;;;;;;;2.50;1.92;;;;;;;;;;2100395;28;20024;-66
2022/08/10 05:05:48;;;;;;;3.00;1.85;;;;;;;;;;2096885;28;20028;-65
2022/08/10 05:07:11;;;;;;;1.98;1.67;;;;;;;;;;2097986;28;20039;-65
2022/08/10 05:08:30;;;;;;;3.08;1.90;;;;;;;;;;2099745;28;20028;-65
2022/08/10 05:09:50;;;;;;;3.90;2.10;;;;;;;;;;2099989;28;20024;-65
2022/08/10 05:11:09;;;;;;;5.13;2.00;;;;;;;;;;2099494;28;20111;-65
2022/08/10 05:12:28;;;;;;;2.97;2.17;;;;;;;;;;2095803;28;20032;-65
2022/08/10 05:13:46;;;;;;;1.75;1.65;;;;;;;;;;2097642;28;20032;-67
2022/08/10 05:15:08;;;;;;;3.90;2.30;;;;;;;;;;2100102;28;20568;-65
2022/08/10 05:16:27;;;;;;;3.25;2.22;;;;;;;;;;2098415;28;20492;-65
2022/08/10 05:17:46;;;;;;;3.92;2.00;;;;;;;;;;2100317;28;20040;-65
2022/08/10 05:19:05;;;;;;;3.08;2.50;;;;;;;;;;2096943;28;20028;-65
2022/08/10 05:20:24;;;;;;;1.95;1.85;;;;;;;;;;2101446;28;20037;-65
2022/08/10 05:21:44;;;;;;;3.03;2.00;;;;;;;;;;2100430;28;20028;-65
2022/08/10 05:23:03;;;;;;;2.85;1.80;;;;;;;;;;2102389;28;20024;-65
2022/08/10 05:24:22;;;;;;;2.85;1.75;;;;;;;;;;2102366;28;20056;-65
2022/08/10 05:25:41;;;;;;;2.20;2.00;;;;;;;;;;2101109;28;20531;-64
2022/08/10 05:27:00;;;;;;;4.15;2.20;;;;;;;;;;2101527;28;20024;-63
2022/08/10 05:28:19;;;;;;;2.00;1.90;;;;;;;;;;2100125;28;20032;-67
2022/08/10 05:29:38;;;;;;;2.42;2.22;;;;;;;;;;2099417;28;20426;-68
2022/08/10 05:30:57;;;;;;;2.10;1.92;;;;;;;;;;2100230;28;20114;-67
2022/08/10 05:32:16;;;;;;;2.67;2.47;;;;;;;;;;2101081;28;20024;-67
2022/08/10 05:33:35;;;;;;;2.38;2.17;;;;;;;;;;2100446;28;20036;-68
2022/08/10 05:34:54;;;;;;;1.92;1.83;;;;;;;;;;2101261;28;20036;-67
2022/08/10 05:36:13;;;;;;;3.20;2.08;;;;;;;;;;2100104;28;20027;-67
2022/08/10 05:37:32;;;;;;;1.88;1.77;;;;;;;;;;2101410;28;20103;-67
2022/08/10 05:38:51;;;;;;;2.70;1.98;;;;;;;;;;2102321;28;20052;-68
2022/08/10 05:40:10;;;;;;;2.28;1.83;;;;;;;;;;2101702;28;20032;-67
2022/08/10 05:41:29;;;;;;;2.85;2.65;;;;;;;;;;2101151;28;20433;-68
2022/08/10 05:42:49;;;;;;;2.40;2.20;;;;;;;;;;2100688;28;20516;-66
2022/08/10 05:44:08;;;;;;;3.58;1.85;;;;;;;;;;2099949;28;20025;-68
2022/08/10 05:45:27;;;;;;;4.68;1.83;;;;;;;;;;2101003;28;20024;-69
2022/08/10 05:46:46;;;;;;;4.15;2.40;;;;;;;;;;2101279;28;20028;-68
2022/08/10 05:48:05;;;;;;;1.98;1.88;;;;;;;;;;2101707;28;20070;-68
2022/08/10 05:49:23;;;;;;;4.93;1.90;;;;;;;;;;2101243;28;20028;-67
2022/08/10 05:50:42;;;;;;;1.80;1.70;;;;;;;;;;2101797;28;20056;-68
2022/08/10 05:52:02;;;;;;;4.32;2.15;;;;;;;;;;2100702;28;20067;-68
2022/08/10 05:53:20;;;;;;;4.53;2.30;;;;;;;;;;2100458;28;20036;-67
2022/08/10 05:54:39;;;;;;;2.38;2.17;;;;;;;;;;2101384;28;20044;-69
2022/08/10 05:55:59;;;;;;;2.95;1.83;;;;;;;;;;2101289;28;20040;-68
2022/08/10 05:57:19;;;;;;;4.40;2.15;;;;;;;;;;2100478;28;20036;-68
2022/08/10 05:58:38;;;;;;;1.88;1.70;;;;;;;;;;2100125;28;20040;-68
2022/08/10 06:00:18;;;;;;;1.75;1.65;;;;;;;;;;2102091;28;20035;-69
2022/08/10 06:01:39;;;;;;;4.68;1.88;;;;;;;;;;2099803;28;20032;-68
2022/08/10 06:03:00;;;;;;;3.50;1.90;;;;;;;;;;2101191;28;20111;-69
2022/08/10 06:04:29;;;;;;;1.90;1.80;;;;;;;;;;2099544;28;20447;-68
2022/08/10 06:05:48;;;;;;;4.60;2.08;;;;;;;;;;2101358;28;20052;-68
2022/08/10 06:07:07;;;;;;;2.15;2.03;;;;;;;;;;2100025;28;20020;-69
2022/08/10 06:08:30;;;;;;;1.80;1.70;;;;;;;;;;2101327;28;20029;-68
2022/08/10 06:09:49;;;;;;;2.60;2.35;;;;;;;;;;2100979;28;20415;-69
2022/08/10 06:11:09;;;;;;;2.40;2.20;;;;;;;;;;2101924;28;20033;-69
2022/08/10 06:12:29;;;;;;;2.15;1.83;;;;;;;;;;2101333;28;20033;-69
2022/08/10 06:15:27;;;;;;;4.05;1.98;;;;;;;;;;2100328;28;20016;-69
2022/08/10 06:16:46;;;;;;;2.00;1.80;;;;;;;;;;2101085;28;20505;-68
2022/08/10 06:18:05;;;;;;;3.03;2.03;;;;;;;;;;2101642;28;20040;-69
2022/08/10 06:19:24;;;;;;;2.67;2.42;;;;;;;;;;2101165;28;20032;-69
2022/08/10 06:20:44;;;;;;;2.20;2.00;;;;;;;;;;2099947;28;20027;-69
2022/08/10 06:22:03;;;;;;;2.15;2.03;;;;;;;;;;2101200;28;20056;-69
2022/08/10 06:23:22;;;;;;;2.58;2.00;;;;;;;;;;2101166;28;20036;-69
2022/08/10 06:24:41;;;;;;;11.60;2.22;;;;;;;;;;2102190;28;20107;-68
2022/08/10 06:26:00;;;;;;;2.55;2.33;;;;;;;;;;2101634;28;20081;-69
2022/08/10 06:27:19;;;;;;;4.38;2.05;;;;;;;;;;2101599;28;20025;-68
2022/08/10 06:28:51;;;;;;;2.00;1.88;;;;;;;;;;2100489;28;20040;-70
2022/08/10 06:30:10;;;;;;;2.67;2.22;;;;;;;;;;2102031;28;20384;-70
2022/08/10 06:31:30;;;;;;;1.95;1.85;;;;;;;;;;2101693;28;20111;-69
2022/08/10 06:32:50;;;;;;;2.72;1.92;;;;;;;;;;2100606;28;20048;-69
2022/08/10 06:34:09;;;;;;;2.90;1.92;;;;;;;;;;2100816;28;20028;-69
2022/08/10 06:35:30;;;;;;;3.30;2.08;;;;;;;;;;2100415;28;20024;-68
2022/08/10 06:36:51;;;;;;;2.35;2.10;;;;;;;;;;2102192;28;20020;-68
2022/08/10 06:38:11;;;;;;;2.15;1.98;;;;;;;;;;2099829;28;20417;-69
2022/08/10 06:39:30;;;;;;;8.38;2.03;;;;;;;;;;2100869;28;20067;-69
2022/08/10 06:40:51;;;;;;;4.13;2.17;;;;;;;;;;2100461;28;20025;-68
2022/08/10 06:42:16;;;;;;;3.33;1.90;;;;;;;;;;2100116;28;20054;-71
2022/08/10 06:43:35;;;;;;;3.53;2.03;;;;;;;;;;2100697;28;20103;-69
2022/08/10 06:44:56;;;;;;;5.57;2.10;;;;;;;;;;2100978;28;20028;-66
2022/08/10 06:46:16;;;;;;;6.03;2.40;;;;;;;;;;2100876;28;20020;-67
2022/08/10 06:47:43;;;;;;;7.53;2.75;;;;;;;;;;2100900;28;20028;-68
2022/08/10 06:49:04;;;;;;;4.40;1.95;;;;;;;;;;2100582;28;20504;-67
2022/08/10 06:50:29;;;;;;;3.50;2.08;;;;;;;;;;2101412;28;20388;-67
2022/08/10 06:51:51;;;;;;;2.50;1.70;;;;;;;;;;2099678;28;20111;-66
2022/08/10 06:53:11;;;;;;;1.92;1.75;;;;;;;;;;2099586;28;20044;-67
2022/08/10 06:54:31;;;;;;;2.25;2.05;;;;;;;;;;2100368;28;20060;-67
2022/08/10 06:56:02;;;;;;;3.45;2.08;;;;;;;;;;2101227;28;20024;-69
2022/08/10 06:57:23;;;;;;;2.92;2.38;;;;;;;;;;2100907;28;20032;-67
2022/08/10 06:59:04;;;;;;;3.38;1.80;;;;;;;;;;2099932;28;20513;-67
2022/08/10 07:00:25;;;;;;;4.63;1.90;;;;;;;;;;2101259;28;20036;-66
2022/08/10 07:01:44;;;;;;;2.25;2.00;;;;;;;;;;2101176;28;20036;-66
2022/08/10 07:03:06;;;;;;;2.00;1.80;;;;;;;;;;2099065;28;20099;-66
2022/08/10 07:04:27;;;;;;;3.08;1.65;;;;;;;;;;2100702;28;20028;-67
2022/08/10 07:05:47;;;;;;;2.25;1.80;;;;;;;;;;2101357;28;20025;-66
2022/08/10 07:07:06;;;;;;;3.20;1.83;;;;;;;;;;2100606;28;20103;-67
2022/08/10 07:08:26;;;;;;;1.85;1.63;;;;;;;;;;2100383;28;20033;-65
2022/08/10 07:09:45;;;;;;;1.95;1.80;;;;;;;;;;2100548;28;20055;-66
2022/08/10 07:11:05;;;;;;;2.97;2.13;;;;;;;;;;2100735;28;20036;-67
2022/08/10 07:12:24;;;;;;;4.28;1.85;;;;;;;;;;2100901;28;20464;-66
2022/08/10 07:13:44;;;;;;;2.00;1.90;;;;;;;;;;2098625;28;20045;-66
2022/08/10 07:15:03;;;;;;;2.65;2.00;;;;;;;;;;2097830;28;20059;-64
2022/08/10 07:16:27;;;;;;;2.17;1.63;;;;;;;;;;2100573;28;20032;-66
2022/08/10 07:17:47;;;;;;;2.10;1.98;;;;;;;;;;2099536;28;20036;-66
2022/08/10 07:19:07;;;;;;;2.25;2.05;;;;;;;;;;2097982;28;20021;-66
2022/08/10 07:20:26;;;;;;;1.80;1.60;;;;;;;;;;2100393;28;20024;-66
2022/08/10 07:21:46;;;;;;;2.05;1.52;;;;;;;;;;2101662;28;20036;-66
2022/08/10 07:23:05;;;;;;;2.05;1.85;;;;;;;;;;2101809;28;20119;-66
2022/08/10 07:24:25;;;;;;;4.28;2.00;;;;;;;;;;2100528;28;20059;-66
2022/08/10 07:25:45;;;;;;;2.17;1.83;;;;;;;;;;2099229;28;20032;-67
2022/08/10 07:27:05;;;;;;;2.90;1.88;;;;;;;;;;2099739;28;20069;-65
2022/08/10 07:28:24;;;;;;;2.80;1.80;;;;;;;;;;2100418;28;20024;-66
2022/08/10 07:29:44;;;;;;;2.28;1.67;;;;;;;;;;2100620;28;20483;-66
2022/08/10 07:31:03;;;;;;;2.17;2.00;;;;;;;;;;2099828;28;20036;-66
2022/08/10 07:32:23;;;;;;;2.70;1.80;;;;;;;;;;2100758;28;20024;-66
2022/08/10 07:33:42;;;;;;;2.75;2.03;;;;;;;;;;2098473;28;20044;-66
2022/08/10 07:35:02;;;;;;;6.45;1.88;;;;;;;;;;2099535;28;20044;-64
2022/08/10 07:36:22;;;;;;;4.63;1.90;;;;;;;;;;2100698;28;20020;-69
2022/08/10 07:37:45;;;;;;;2.47;1.90;;;;;;;;;;2099254;28;20517;-66
2022/08/10 07:39:05;;;;;;;2.83;1.77;;;;;;;;;;2098807;28;20029;-66
2022/08/10 07:40:24;;;;;;;3.35;1.50;;;;;;;;;;2099181;28;20021;-67
2022/08/10 07:41:44;;;;;;;2.00;1.85;;;;;;;;;;2100355;28;20025;-66
2022/08/10 07:43:03;;;;;;;2.38;1.70;;;;;;;;;;2100335;28;20024;-67
2022/08/10 07:44:25;;;;;;;2.40;1.65;;;;;;;;;;2099922;28;20472;-66
2022/08/10 07:45:45;;;;;;;3.17;1.88;;;;;;;;;;2099934;28;20024;-66
2022/08/10 07:47:05;;;;;;;4.47;1.67;;;;;;;;;;2100599;28;20029;-66
2022/08/10 07:48:26;;;;;;;1.88;1.60;;;;;;;;;;2100963;28;20028;-66
2022/08/10 07:49:45;;;;;;;2.55;1.95;;;;;;;;;;2100485;28;20044;-66
2022/08/10 07:51:06;;;;;;;2.45;1.63;;;;;;;;;;2100033;28;20064;-66
2022/08/10 07:52:24;;;;;;;2.53;1.90;;;;;;;;;;2099918;28;20040;-65
2022/08/10 07:53:45;;;;;;;2.00;1.90;;;;;;;;;;2101600;28;20040;-66
2022/08/10 07:55:06;;;;;;;2.75;2.00;;;;;;;;;;2099199;28;20024;-66
2022/08/10 07:56:25;;;;;;;3.03;2.30;;;;;;;;;;2100697;28;20064;-65
2022/08/10 07:57:47;;;;;;;2.75;1.90;;;;;;;;;;2101006;28;20023;-66
2022/08/10 07:59:08;;;;;;;9.85;2.40;;;;;;;;;;2097192;28;20029;-65
2022/08/10 08:00:29;;;;;;;2.92;2.00;;;;;;;;;;2100466;28;20025;-64
2022/08/10 08:01:51;;;;;;;2.28;1.75;;;;;;;;;;2099450;28;20025;-66
2022/08/10 08:03:11;;;;;;;3.80;1.63;;;;;;;;;;2097975;28;20024;-65
2022/08/10 08:04:31;;;;;;;2.42;1.60;;;;;;;;;;2099143;28;20032;-65
2022/08/10 08:05:51;;;;;;;1.80;1.67;;;;;;;;;;2101238;28;20104;-65
2022/08/10 08:07:11;;;;;;;1.73;1.60;;;;;;;;;;2100634;28;20028;-65
2022/08/10 08:08:31;;;;;;;2.28;1.65;;;;;;;;;;2101527;28;20044;-65
2022/08/10 08:09:50;;;;;;;4.47;1.70;;;;;;;;;;2100045;28;20063;-66